sensor_id;sensor_type;location;lat;lon;timestamp;P1;durP1;ratioP1;P2;durP2;ratioP2
69083;SDS011;56185;48.526;9.044;2022-11-14T00:01:24;14.77;;;9.50;;
69083;SDS011;56185;48.526;9.044;2022-11-14T00:03:49;11.77;;;8.20;;
69083;SDS011;56185;48.526;9.044;2022-11-14T00:06:14;12.63;;;8.30;;
69083;SDS011;56185;48.526;9.044;2022-11-14T00:08:39;13.38;;;9.02;;
69083;SDS011;56185;48.526;9.044;2022-11-14T00:11:05;13.10;;;8.70;;
69083;SDS011;56185;48.526;9.044;2022-11-14T00:13:30;15.32;;;9.82;;
69083;SDS011;56185;48.526;9.044;2022-11-14T00:15:55;15.60;;;9.63;;
69083;SDS011;56185;48.526;9.044;2022-11-14T00:18:20;15.05;;;10.02;;
69083;SDS011;56185;48.526;9.044;2022-11-14T00:20:50;14.95;;;9.90;;
69083;SDS011;56185;48.526;9.044;2022-11-14T00:23:16;15.02;;;9.85;;
69083;SDS011;56185;48.526;9.044;2022-11-14T00:25:43;14.25;;;8.93;;
69083;SDS011;56185;48.526;9.044;2022-11-14T00:28:09;14.70;;;9.80;;
69083;SDS011;56185;48.526;9.044;2022-11-14T00:30:34;16.40;;;9.98;;
69083;SDS011;56185;48.526;9.044;2022-11-14T00:32:59;15.18;;;9.85;;
69083;SDS011;56185;48.526;9.044;2022-11-14T00:35:24;17.50;;;10.23;;
69083;SDS011;56185;48.526;9.044;2022-11-14T00:37:50;17.25;;;10.63;;
69083;SDS011;56185;48.526;9.044;2022-11-14T00:40:15;16.23;;;9.70;;
69083;SDS011;56185;48.526;9.044;2022-11-14T00:42:40;17.95;;;11.13;;
69083;SDS011;56185;48.526;9.044;2022-11-14T00:45:06;16.42;;;11.18;;
69083;SDS011;56185;48.526;9.044;2022-11-14T00:47:31;16.23;;;10.23;;
69083;SDS011;56185;48.526;9.044;2022-11-14T00:49:56;17.38;;;10.88;;
69083;SDS011;56185;48.526;9.044;2022-11-14T00:52:22;16.00;;;10.55;;
69083;SDS011;56185;48.526;9.044;2022-11-14T00:54:47;17.33;;;10.70;;
69083;SDS011;56185;48.526;9.044;2022-11-14T00:57:12;15.32;;;10.13;;
69083;SDS011;56185;48.526;9.044;2022-11-14T00:59:37;18.00;;;11.55;;
69083;SDS011;56185;48.526;9.044;2022-11-14T01:02:03;16.40;;;10.43;;
69083;SDS011;56185;48.526;9.044;2022-11-14T01:04:28;16.13;;;10.93;;
69083;SDS011;56185;48.526;9.044;2022-11-14T01:06:53;17.48;;;10.60;;
69083;SDS011;56185;48.526;9.044;2022-11-14T01:09:19;15.77;;;10.45;;
69083;SDS011;56185;48.526;9.044;2022-11-14T01:11:44;15.45;;;9.98;;
69083;SDS011;56185;48.526;9.044;2022-11-14T01:14:09;14.50;;;9.30;;
69083;SDS011;56185;48.526;9.044;2022-11-14T01:16:34;13.18;;;7.70;;
69083;SDS011;56185;48.526;9.044;2022-11-14T01:19:00;13.18;;;8.55;;
69083;SDS011;56185;48.526;9.044;2022-11-14T01:21:26;12.23;;;8.40;;
69083;SDS011;56185;48.526;9.044;2022-11-14T01:23:51;13.00;;;8.18;;
69083;SDS011;56185;48.526;9.044;2022-11-14T01:26:17;11.75;;;7.53;;
69083;SDS011;56185;48.526;9.044;2022-11-14T01:28:42;12.63;;;7.57;;
69083;SDS011;56185;48.526;9.044;2022-11-14T01:31:21;11.80;;;7.32;;
69083;SDS011;56185;48.526;9.044;2022-11-14T01:33:51;10.35;;;7.05;;
69083;SDS011;56185;48.526;9.044;2022-11-14T01:36:18;13.45;;;8.07;;
69083;SDS011;56185;48.526;9.044;2022-11-14T01:38:44;11.00;;;7.45;;
69083;SDS011;56185;48.526;9.044;2022-11-14T01:41:13;9.90;;;6.90;;
69083;SDS011;56185;48.526;9.044;2022-11-14T01:43:40;12.00;;;7.25;;
69083;SDS011;56185;48.526;9.044;2022-11-14T01:46:09;11.63;;;7.57;;
69083;SDS011;56185;48.526;9.044;2022-11-14T01:48:43;12.32;;;7.43;;
69083;SDS011;56185;48.526;9.044;2022-11-14T01:53:59;14.88;;;7.97;;
69083;SDS011;56185;48.526;9.044;2022-11-14T01:57:16;15.77;;;8.35;;
69083;SDS011;56185;48.526;9.044;2022-11-14T01:59:26;19.63;;;9.68;;
69083;SDS011;56185;48.526;9.044;2022-11-14T02:01:55;14.48;;;9.18;;
69083;SDS011;56185;48.526;9.044;2022-11-14T02:04:24;14.55;;;8.80;;
69083;SDS011;56185;48.526;9.044;2022-11-14T02:06:55;18.27;;;9.38;;
69083;SDS011;56185;48.526;9.044;2022-11-14T02:09:23;13.07;;;8.43;;
69083;SDS011;56185;48.526;9.044;2022-11-14T02:11:49;15.15;;;8.75;;
69083;SDS011;56185;48.526;9.044;2022-11-14T02:14:16;16.00;;;9.52;;
69083;SDS011;56185;48.526;9.044;2022-11-14T02:16:42;25.23;;;10.50;;
69083;SDS011;56185;48.526;9.044;2022-11-14T02:19:08;17.48;;;9.40;;
69083;SDS011;56185;48.526;9.044;2022-11-14T02:21:33;14.65;;;9.27;;
69083;SDS011;56185;48.526;9.044;2022-11-14T02:23:59;21.13;;;9.45;;
69083;SDS011;56185;48.526;9.044;2022-11-14T02:26:24;21.23;;;9.55;;
69083;SDS011;56185;48.526;9.044;2022-11-14T02:28:49;23.90;;;9.73;;
69083;SDS011;56185;48.526;9.044;2022-11-14T02:31:15;16.80;;;9.05;;
69083;SDS011;56185;48.526;9.044;2022-11-14T02:33:40;15.32;;;9.25;;
69083;SDS011;56185;48.526;9.044;2022-11-14T02:36:06;12.63;;;8.18;;
69083;SDS011;56185;48.526;9.044;2022-11-14T02:38:31;15.95;;;9.02;;
69083;SDS011;56185;48.526;9.044;2022-11-14T02:41:00;15.50;;;8.43;;
69083;SDS011;56185;48.526;9.044;2022-11-14T02:43:26;13.05;;;8.55;;
69083;SDS011;56185;48.526;9.044;2022-11-14T02:45:51;15.10;;;8.30;;
69083;SDS011;56185;48.526;9.044;2022-11-14T02:48:17;11.68;;;8.18;;
69083;SDS011;56185;48.526;9.044;2022-11-14T02:50:42;13.18;;;8.50;;
69083;SDS011;56185;48.526;9.044;2022-11-14T02:53:07;12.45;;;8.07;;
69083;SDS011;56185;48.526;9.044;2022-11-14T02:55:33;13.95;;;8.27;;
69083;SDS011;56185;48.526;9.044;2022-11-14T02:57:58;17.88;;;8.70;;
69083;SDS011;56185;48.526;9.044;2022-11-14T03:00:23;14.30;;;8.82;;
69083;SDS011;56185;48.526;9.044;2022-11-14T03:02:48;20.00;;;9.63;;
69083;SDS011;56185;48.526;9.044;2022-11-14T03:05:14;14.37;;;8.60;;
69083;SDS011;56185;48.526;9.044;2022-11-14T03:07:39;12.65;;;8.25;;
69083;SDS011;56185;48.526;9.044;2022-11-14T03:10:04;13.60;;;8.85;;
69083;SDS011;56185;48.526;9.044;2022-11-14T03:12:30;13.98;;;9.18;;
69083;SDS011;56185;48.526;9.044;2022-11-14T03:14:55;13.45;;;8.60;;
69083;SDS011;56185;48.526;9.044;2022-11-14T03:17:21;14.93;;;8.97;;
69083;SDS011;56185;48.526;9.044;2022-11-14T03:19:46;13.50;;;9.30;;
69083;SDS011;56185;48.526;9.044;2022-11-14T03:22:11;14.13;;;8.48;;
69083;SDS011;56185;48.526;9.044;2022-11-14T03:24:36;15.60;;;9.75;;
69083;SDS011;56185;48.526;9.044;2022-11-14T03:27:01;19.05;;;9.73;;
69083;SDS011;56185;48.526;9.044;2022-11-14T03:29:27;13.25;;;8.65;;
69083;SDS011;56185;48.526;9.044;2022-11-14T03:31:52;14.97;;;8.80;;
69083;SDS011;56185;48.526;9.044;2022-11-14T03:34:17;17.98;;;8.77;;
69083;SDS011;56185;48.526;9.044;2022-11-14T03:36:42;16.80;;;9.02;;
69083;SDS011;56185;48.526;9.044;2022-11-14T03:39:08;18.60;;;8.73;;
69083;SDS011;56185;48.526;9.044;2022-11-14T03:41:33;15.05;;;8.77;;
69083;SDS011;56185;48.526;9.044;2022-11-14T03:43:58;13.68;;;8.27;;
69083;SDS011;56185;48.526;9.044;2022-11-14T03:46:23;11.30;;;7.97;;
69083;SDS011;56185;48.526;9.044;2022-11-14T03:48:49;21.45;;;8.52;;
69083;SDS011;56185;48.526;9.044;2022-11-14T03:51:14;15.17;;;8.13;;
69083;SDS011;56185;48.526;9.044;2022-11-14T03:53:39;24.60;;;7.95;;
69083;SDS011;56185;48.526;9.044;2022-11-14T03:56:04;14.38;;;7.72;;
69083;SDS011;56185;48.526;9.044;2022-11-14T03:58:30;13.30;;;8.00;;
69083;SDS011;56185;48.526;9.044;2022-11-14T04:00:55;15.70;;;7.60;;
69083;SDS011;56185;48.526;9.044;2022-11-14T04:03:21;12.75;;;7.82;;
69083;SDS011;56185;48.526;9.044;2022-11-14T04:05:47;11.65;;;7.22;;
69083;SDS011;56185;48.526;9.044;2022-11-14T04:08:13;11.13;;;7.68;;
69083;SDS011;56185;48.526;9.044;2022-11-14T04:10:38;13.70;;;7.50;;
69083;SDS011;56185;48.526;9.044;2022-11-14T04:13:04;14.75;;;7.82;;
69083;SDS011;56185;48.526;9.044;2022-11-14T04:15:29;13.07;;;7.78;;
69083;SDS011;56185;48.526;9.044;2022-11-14T04:17:54;19.98;;;7.88;;
69083;SDS011;56185;48.526;9.044;2022-11-14T04:20:20;11.27;;;7.45;;
69083;SDS011;56185;48.526;9.044;2022-11-14T04:22:45;19.23;;;7.97;;
69083;SDS011;56185;48.526;9.044;2022-11-14T04:25:10;12.07;;;8.05;;
69083;SDS011;56185;48.526;9.044;2022-11-14T04:27:36;14.90;;;7.95;;
69083;SDS011;56185;48.526;9.044;2022-11-14T04:30:02;12.43;;;7.90;;
69083;SDS011;56185;48.526;9.044;2022-11-14T04:32:28;17.35;;;8.13;;
69083;SDS011;56185;48.526;9.044;2022-11-14T04:34:54;12.32;;;8.27;;
69083;SDS011;56185;48.526;9.044;2022-11-14T04:37:19;13.32;;;7.60;;
69083;SDS011;56185;48.526;9.044;2022-11-14T04:39:45;20.17;;;8.45;;
69083;SDS011;56185;48.526;9.044;2022-11-14T04:42:10;14.13;;;8.60;;
69083;SDS011;56185;48.526;9.044;2022-11-14T04:44:35;17.33;;;8.00;;
69083;SDS011;56185;48.526;9.044;2022-11-14T04:47:00;13.95;;;8.07;;
69083;SDS011;56185;48.526;9.044;2022-11-14T04:49:26;13.60;;;8.60;;
69083;SDS011;56185;48.526;9.044;2022-11-14T04:51:51;13.70;;;7.95;;
69083;SDS011;56185;48.526;9.044;2022-11-14T04:54:16;15.43;;;7.72;;
69083;SDS011;56185;48.526;9.044;2022-11-14T04:56:41;16.70;;;8.40;;
69083;SDS011;56185;48.526;9.044;2022-11-14T04:59:07;12.45;;;7.65;;
69083;SDS011;56185;48.526;9.044;2022-11-14T05:01:32;13.32;;;7.97;;
69083;SDS011;56185;48.526;9.044;2022-11-14T05:03:57;12.48;;;8.00;;
69083;SDS011;56185;48.526;9.044;2022-11-14T05:06:22;16.43;;;8.40;;
69083;SDS011;56185;48.526;9.044;2022-11-14T05:08:48;15.13;;;8.10;;
69083;SDS011;56185;48.526;9.044;2022-11-14T05:11:13;13.05;;;8.43;;
69083;SDS011;56185;48.526;9.044;2022-11-14T05:13:39;12.52;;;7.78;;
69083;SDS011;56185;48.526;9.044;2022-11-14T05:16:05;18.13;;;8.65;;
69083;SDS011;56185;48.526;9.044;2022-11-14T05:18:30;15.63;;;8.48;;
69083;SDS011;56185;48.526;9.044;2022-11-14T05:20:59;18.45;;;9.38;;
69083;SDS011;56185;48.526;9.044;2022-11-14T05:23:25;13.32;;;8.25;;
69083;SDS011;56185;48.526;9.044;2022-11-14T05:26:25;12.27;;;8.63;;
69083;SDS011;56185;48.526;9.044;2022-11-14T05:28:43;11.35;;;7.43;;
69083;SDS011;56185;48.526;9.044;2022-11-14T05:31:10;16.52;;;7.85;;
69083;SDS011;56185;48.526;9.044;2022-11-14T05:33:36;14.73;;;8.27;;
69083;SDS011;56185;48.526;9.044;2022-11-14T05:36:03;14.55;;;8.18;;
69083;SDS011;56185;48.526;9.044;2022-11-14T05:38:32;12.30;;;8.02;;
69083;SDS011;56185;48.526;9.044;2022-11-14T05:40:58;14.93;;;7.28;;
69083;SDS011;56185;48.526;9.044;2022-11-14T05:43:24;11.05;;;7.57;;
69083;SDS011;56185;48.526;9.044;2022-11-14T05:45:49;12.25;;;7.45;;
69083;SDS011;56185;48.526;9.044;2022-11-14T05:48:15;11.80;;;7.55;;
69083;SDS011;56185;48.526;9.044;2022-11-14T05:50:40;12.05;;;8.02;;
69083;SDS011;56185;48.526;9.044;2022-11-14T05:53:05;18.75;;;8.18;;
69083;SDS011;56185;48.526;9.044;2022-11-14T05:55:30;15.68;;;8.43;;
69083;SDS011;56185;48.526;9.044;2022-11-14T05:57:59;15.70;;;8.32;;
69083;SDS011;56185;48.526;9.044;2022-11-14T06:00:24;12.90;;;7.82;;
69083;SDS011;56185;48.526;9.044;2022-11-14T06:02:51;13.70;;;8.35;;
69083;SDS011;56185;48.526;9.044;2022-11-14T06:05:20;18.60;;;8.82;;
69083;SDS011;56185;48.526;9.044;2022-11-14T06:07:45;14.20;;;8.50;;
69083;SDS011;56185;48.526;9.044;2022-11-14T06:10:11;16.45;;;8.20;;
69083;SDS011;56185;48.526;9.044;2022-11-14T06:12:36;17.13;;;8.55;;
69083;SDS011;56185;48.526;9.044;2022-11-14T06:15:02;13.38;;;7.88;;
69083;SDS011;56185;48.526;9.044;2022-11-14T06:17:27;16.95;;;8.77;;
69083;SDS011;56185;48.526;9.044;2022-11-14T06:19:52;16.37;;;10.10;;
69083;SDS011;56185;48.526;9.044;2022-11-14T06:22:18;15.00;;;9.23;;
69083;SDS011;56185;48.526;9.044;2022-11-14T06:24:43;13.00;;;8.55;;
69083;SDS011;56185;48.526;9.044;2022-11-14T06:27:08;15.25;;;8.55;;
69083;SDS011;56185;48.526;9.044;2022-11-14T06:29:33;13.17;;;8.97;;
69083;SDS011;56185;48.526;9.044;2022-11-14T06:31:58;15.02;;;9.00;;
69083;SDS011;56185;48.526;9.044;2022-11-14T06:34:24;16.50;;;9.95;;
69083;SDS011;56185;48.526;9.044;2022-11-14T06:36:49;13.73;;;8.73;;
69083;SDS011;56185;48.526;9.044;2022-11-14T06:39:14;18.85;;;9.65;;
69083;SDS011;56185;48.526;9.044;2022-11-14T06:41:39;16.00;;;10.70;;
69083;SDS011;56185;48.526;9.044;2022-11-14T06:44:06;13.52;;;8.95;;
69083;SDS011;56185;48.526;9.044;2022-11-14T06:46:32;12.30;;;8.45;;
69083;SDS011;56185;48.526;9.044;2022-11-14T06:48:57;12.60;;;8.57;;
69083;SDS011;56185;48.526;9.044;2022-11-14T06:51:22;14.10;;;8.70;;
69083;SDS011;56185;48.526;9.044;2022-11-14T06:53:47;13.40;;;9.25;;
69083;SDS011;56185;48.526;9.044;2022-11-14T06:56:14;12.27;;;7.72;;
69083;SDS011;56185;48.526;9.044;2022-11-14T06:58:42;12.50;;;7.70;;
69083;SDS011;56185;48.526;9.044;2022-11-14T07:01:16;13.35;;;8.50;;
69083;SDS011;56185;48.526;9.044;2022-11-14T07:03:45;11.20;;;7.95;;
69083;SDS011;56185;48.526;9.044;2022-11-14T07:06:12;12.65;;;8.18;;
69083;SDS011;56185;48.526;9.044;2022-11-14T07:08:39;12.48;;;8.20;;
69083;SDS011;56185;48.526;9.044;2022-11-14T07:13:30;10.77;;;7.23;;
69083;SDS011;56185;48.526;9.044;2022-11-14T07:15:56;11.82;;;7.22;;
69083;SDS011;56185;48.526;9.044;2022-11-14T07:18:22;11.57;;;7.88;;
69083;SDS011;56185;48.526;9.044;2022-11-14T07:20:47;13.35;;;8.55;;
69083;SDS011;56185;48.526;9.044;2022-11-14T07:23:13;12.77;;;8.30;;
69083;SDS011;56185;48.526;9.044;2022-11-14T07:25:39;11.55;;;8.40;;
69083;SDS011;56185;48.526;9.044;2022-11-14T07:28:04;14.02;;;9.48;;
69083;SDS011;56185;48.526;9.044;2022-11-14T07:30:29;15.73;;;10.23;;
69083;SDS011;56185;48.526;9.044;2022-11-14T07:32:55;10.82;;;8.18;;
69083;SDS011;56185;48.526;9.044;2022-11-14T07:35:21;12.95;;;8.40;;
69083;SDS011;56185;48.526;9.044;2022-11-14T07:37:47;12.82;;;9.05;;
69083;SDS011;56185;48.526;9.044;2022-11-14T07:40:13;14.20;;;8.82;;
69083;SDS011;56185;48.526;9.044;2022-11-14T07:42:39;12.98;;;8.45;;
69083;SDS011;56185;48.526;9.044;2022-11-14T07:45:05;14.50;;;9.40;;
69083;SDS011;56185;48.526;9.044;2022-11-14T07:47:59;11.45;;;7.68;;
69083;SDS011;56185;48.526;9.044;2022-11-14T07:50:26;13.07;;;7.93;;
69083;SDS011;56185;48.526;9.044;2022-11-14T07:53:03;12.15;;;7.95;;
69083;SDS011;56185;48.526;9.044;2022-11-14T07:55:29;11.55;;;7.88;;
69083;SDS011;56185;48.526;9.044;2022-11-14T07:57:54;13.38;;;8.57;;
69083;SDS011;56185;48.526;9.044;2022-11-14T08:00:19;12.75;;;8.57;;
69083;SDS011;56185;48.526;9.044;2022-11-14T08:02:45;12.95;;;8.63;;
69083;SDS011;56185;48.526;9.044;2022-11-14T08:05:11;11.90;;;7.95;;
69083;SDS011;56185;48.526;9.044;2022-11-14T08:07:36;11.85;;;8.80;;
69083;SDS011;56185;48.526;9.044;2022-11-14T08:10:02;12.43;;;8.40;;
69083;SDS011;56185;48.526;9.044;2022-11-14T08:12:27;14.90;;;9.13;;
69083;SDS011;56185;48.526;9.044;2022-11-14T08:14:52;12.00;;;8.53;;
69083;SDS011;56185;48.526;9.044;2022-11-14T08:17:19;14.52;;;8.80;;
69083;SDS011;56185;48.526;9.044;2022-11-14T08:19:44;12.75;;;9.13;;
69083;SDS011;56185;48.526;9.044;2022-11-14T08:22:10;14.77;;;9.47;;
69083;SDS011;56185;48.526;9.044;2022-11-14T08:24:35;14.25;;;9.50;;
69083;SDS011;56185;48.526;9.044;2022-11-14T08:27:00;14.32;;;8.82;;
69083;SDS011;56185;48.526;9.044;2022-11-14T08:29:25;12.90;;;7.97;;
69083;SDS011;56185;48.526;9.044;2022-11-14T08:31:51;12.33;;;7.10;;
69083;SDS011;56185;48.526;9.044;2022-11-14T08:34:16;12.13;;;6.60;;
69083;SDS011;56185;48.526;9.044;2022-11-14T08:36:41;17.77;;;10.82;;
69083;SDS011;56185;48.526;9.044;2022-11-14T08:39:06;15.77;;;9.50;;
69083;SDS011;56185;48.526;9.044;2022-11-14T08:41:32;14.88;;;9.85;;
69083;SDS011;56185;48.526;9.044;2022-11-14T08:43:57;13.00;;;8.57;;
69083;SDS011;56185;48.526;9.044;2022-11-14T08:46:22;6.53;;;3.70;;
69083;SDS011;56185;48.526;9.044;2022-11-14T08:48:47;4.90;;;2.93;;
69083;SDS011;56185;48.526;9.044;2022-11-14T08:51:12;4.03;;;2.83;;
69083;SDS011;56185;48.526;9.044;2022-11-14T08:53:38;5.13;;;3.50;;
69083;SDS011;56185;48.526;9.044;2022-11-14T08:56:03;4.60;;;3.33;;
69083;SDS011;56185;48.526;9.044;2022-11-14T08:58:29;4.45;;;2.95;;
69083;SDS011;56185;48.526;9.044;2022-11-14T09:01:02;4.80;;;3.05;;
69083;SDS011;56185;48.526;9.044;2022-11-14T09:03:29;5.95;;;3.50;;
69083;SDS011;56185;48.526;9.044;2022-11-14T09:05:55;17.00;;;10.38;;
69083;SDS011;56185;48.526;9.044;2022-11-14T09:08:20;14.70;;;9.25;;
69083;SDS011;56185;48.526;9.044;2022-11-14T09:10:46;11.82;;;8.20;;
69083;SDS011;56185;48.526;9.044;2022-11-14T09:13:11;17.65;;;12.02;;
69083;SDS011;56185;48.526;9.044;2022-11-14T09:15:37;22.90;;;13.75;;
69083;SDS011;56185;48.526;9.044;2022-11-14T09:18:02;19.90;;;12.97;;
69083;SDS011;56185;48.526;9.044;2022-11-14T09:20:27;5.15;;;3.58;;
69083;SDS011;56185;48.526;9.044;2022-11-14T09:22:52;25.88;;;15.90;;
69083;SDS011;56185;48.526;9.044;2022-11-14T09:25:18;20.70;;;13.03;;
69083;SDS011;56185;48.526;9.044;2022-11-14T09:27:43;23.83;;;14.30;;
69083;SDS011;56185;48.526;9.044;2022-11-14T09:30:09;21.80;;;13.85;;
69083;SDS011;56185;48.526;9.044;2022-11-14T09:32:34;27.00;;;16.20;;
69083;SDS011;56185;48.526;9.044;2022-11-14T09:35:00;22.37;;;12.53;;
69083;SDS011;56185;48.526;9.044;2022-11-14T09:37:25;24.00;;;14.45;;
69083;SDS011;56185;48.526;9.044;2022-11-14T09:39:50;14.60;;;9.75;;
69083;SDS011;56185;48.526;9.044;2022-11-14T09:45:00;15.77;;;9.40;;
69083;SDS011;56185;48.526;9.044;2022-11-14T09:47:28;14.93;;;9.25;;
69083;SDS011;56185;48.526;9.044;2022-11-14T09:52:38;9.68;;;7.03;;
69083;SDS011;56185;48.526;9.044;2022-11-14T09:55:10;12.23;;;7.82;;
69083;SDS011;56185;48.526;9.044;2022-11-14T09:57:37;8.60;;;6.13;;
69083;SDS011;56185;48.526;9.044;2022-11-14T10:00:15;6.75;;;4.43;;
69083;SDS011;56185;48.526;9.044;2022-11-14T10:10:44;9.07;;;6.15;;
69083;SDS011;56185;48.526;9.044;2022-11-14T10:13:28;10.30;;;6.45;;
69083;SDS011;56185;48.526;9.044;2022-11-14T10:18:48;15.77;;;9.50;;
69083;SDS011;56185;48.526;9.044;2022-11-14T10:21:27;12.02;;;8.65;;
69083;SDS011;56185;48.526;9.044;2022-11-14T10:26:59;6.28;;;3.85;;
69083;SDS011;56185;48.526;9.044;2022-11-14T10:29:50;5.10;;;3.92;;
69083;SDS011;56185;48.526;9.044;2022-11-14T10:32:23;10.23;;;6.20;;
69083;SDS011;56185;48.526;9.044;2022-11-14T10:34:53;6.60;;;4.57;;
69083;SDS011;56185;48.526;9.044;2022-11-14T10:37:28;6.03;;;4.45;;
69083;SDS011;56185;48.526;9.044;2022-11-14T10:40:11;5.05;;;3.22;;
69083;SDS011;56185;48.526;9.044;2022-11-14T10:42:38;9.30;;;6.65;;
69083;SDS011;56185;48.526;9.044;2022-11-14T10:45:22;6.63;;;5.10;;
69083;SDS011;56185;48.526;9.044;2022-11-14T10:50:18;6.03;;;4.35;;
69083;SDS011;56185;48.526;9.044;2022-11-14T10:52:47;4.40;;;3.10;;
69083;SDS011;56185;48.526;9.044;2022-11-14T10:55:18;6.85;;;5.30;;
69083;SDS011;56185;48.526;9.044;2022-11-14T10:57:44;7.43;;;5.68;;
69083;SDS011;56185;48.526;9.044;2022-11-14T11:00:14;7.32;;;5.32;;
69083;SDS011;56185;48.526;9.044;2022-11-14T11:02:54;4.45;;;3.13;;
69083;SDS011;56185;48.526;9.044;2022-11-14T11:05:22;3.75;;;2.67;;
69083;SDS011;56185;48.526;9.044;2022-11-14T11:07:48;4.00;;;2.28;;
69083;SDS011;56185;48.526;9.044;2022-11-14T11:10:21;3.80;;;1.85;;
69083;SDS011;56185;48.526;9.044;2022-11-14T11:12:51;8.02;;;6.53;;
69083;SDS011;56185;48.526;9.044;2022-11-14T11:15:25;4.45;;;3.88;;
69083;SDS011;56185;48.526;9.044;2022-11-14T11:23:01;4.50;;;3.30;;
69083;SDS011;56185;48.526;9.044;2022-11-14T11:25:28;4.40;;;2.80;;
69083;SDS011;56185;48.526;9.044;2022-11-14T11:28:05;4.60;;;2.92;;
69083;SDS011;56185;48.526;9.044;2022-11-14T11:30:54;3.75;;;2.33;;
69083;SDS011;56185;48.526;9.044;2022-11-14T11:33:54;2.50;;;2.00;;
69083;SDS011;56185;48.526;9.044;2022-11-14T11:36:14;3.35;;;1.67;;
69083;SDS011;56185;48.526;9.044;2022-11-14T11:38:42;1.98;;;1.63;;
69083;SDS011;56185;48.526;9.044;2022-11-14T11:43:55;5.13;;;2.00;;
69083;SDS011;56185;48.526;9.044;2022-11-14T11:46:38;2.70;;;1.80;;
69083;SDS011;56185;48.526;9.044;2022-11-14T11:51:54;3.05;;;1.70;;
69083;SDS011;56185;48.526;9.044;2022-11-14T11:54:21;3.10;;;1.98;;
69083;SDS011;56185;48.526;9.044;2022-11-14T11:56:52;3.85;;;2.05;;
69083;SDS011;56185;48.526;9.044;2022-11-14T12:04:53;3.13;;;2.40;;
69083;SDS011;56185;48.526;9.044;2022-11-14T12:10:20;4.95;;;3.40;;
69083;SDS011;56185;48.526;9.044;2022-11-14T12:12:55;4.43;;;2.50;;
69083;SDS011;56185;48.526;9.044;2022-11-14T12:18:30;4.28;;;2.28;;
69083;SDS011;56185;48.526;9.044;2022-11-14T12:23:46;3.83;;;1.80;;
69083;SDS011;56185;48.526;9.044;2022-11-14T12:32:06;2.28;;;1.60;;
69083;SDS011;56185;48.526;9.044;2022-11-14T12:34:37;3.40;;;1.50;;
69083;SDS011;56185;48.526;9.044;2022-11-14T12:37:12;3.15;;;1.70;;
69083;SDS011;56185;48.526;9.044;2022-11-14T12:40:03;3.05;;;1.65;;
69083;SDS011;56185;48.526;9.044;2022-11-14T12:42:30;4.00;;;1.80;;
69083;SDS011;56185;48.526;9.044;2022-11-14T12:44:56;2.60;;;1.70;;
69083;SDS011;56185;48.526;9.044;2022-11-14T12:47:22;2.80;;;1.70;;
69083;SDS011;56185;48.526;9.044;2022-11-14T12:55:18;2.30;;;1.70;;
69083;SDS011;56185;48.526;9.044;2022-11-14T13:00:28;4.85;;;2.80;;
69083;SDS011;56185;48.526;9.044;2022-11-14T13:08:35;3.08;;;1.85;;
69083;SDS011;56185;48.526;9.044;2022-11-14T13:11:31;7.13;;;1.70;;
69083;SDS011;56185;48.526;9.044;2022-11-14T13:14:00;2.33;;;1.70;;
69083;SDS011;56185;48.526;9.044;2022-11-14T13:16:29;2.97;;;2.03;;
69083;SDS011;56185;48.526;9.044;2022-11-14T13:18:59;2.85;;;1.83;;
69083;SDS011;56185;48.526;9.044;2022-11-14T13:21:36;2.83;;;1.50;;
69083;SDS011;56185;48.526;9.044;2022-11-14T13:24:02;3.85;;;1.52;;
69083;SDS011;56185;48.526;9.044;2022-11-14T13:28:53;3.70;;;1.73;;
69083;SDS011;56185;48.526;9.044;2022-11-14T13:31:19;3.57;;;1.63;;
69083;SDS011;56185;48.526;9.044;2022-11-14T13:33:45;1.98;;;1.52;;
69083;SDS011;56185;48.526;9.044;2022-11-14T13:37:03;3.55;;;1.50;;
69083;SDS011;56185;48.526;9.044;2022-11-14T13:45:03;4.45;;;1.83;;
69083;SDS011;56185;48.526;9.044;2022-11-14T13:50:15;2.70;;;1.65;;
69083;SDS011;56185;48.526;9.044;2022-11-14T13:52:43;2.15;;;1.50;;
69083;SDS011;56185;48.526;9.044;2022-11-14T13:55:20;1.92;;;1.40;;
69083;SDS011;56185;48.526;9.044;2022-11-14T13:58:03;5.70;;;1.73;;
69083;SDS011;56185;48.526;9.044;2022-11-14T14:11:53;3.45;;;1.92;;
69083;SDS011;56185;48.526;9.044;2022-11-14T14:20:18;2.92;;;1.60;;
69083;SDS011;56185;48.526;9.044;2022-11-14T14:23:03;3.58;;;2.00;;
69083;SDS011;56185;48.526;9.044;2022-11-14T14:25:42;4.82;;;2.30;;
69083;SDS011;56185;48.526;9.044;2022-11-14T14:28:23;4.10;;;2.15;;
69083;SDS011;56185;48.526;9.044;2022-11-14T14:31:29;4.38;;;1.80;;
69083;SDS011;56185;48.526;9.044;2022-11-14T14:33:48;3.67;;;1.80;;
69083;SDS011;56185;48.526;9.044;2022-11-14T14:36:22;4.65;;;1.85;;
69083;SDS011;56185;48.526;9.044;2022-11-14T14:38:49;4.78;;;2.00;;
69083;SDS011;56185;48.526;9.044;2022-11-14T14:41:15;3.15;;;1.83;;
69083;SDS011;56185;48.526;9.044;2022-11-14T14:43:43;1.80;;;1.30;;
69083;SDS011;56185;48.526;9.044;2022-11-14T14:46:15;5.70;;;1.90;;
69083;SDS011;56185;48.526;9.044;2022-11-14T14:48:41;3.00;;;1.90;;
69083;SDS011;56185;48.526;9.044;2022-11-14T14:51:11;3.35;;;2.10;;
69083;SDS011;56185;48.526;9.044;2022-11-14T14:53:38;4.25;;;1.95;;
69083;SDS011;56185;48.526;9.044;2022-11-14T14:56:05;2.90;;;1.77;;
69083;SDS011;56185;48.526;9.044;2022-11-14T14:58:42;4.05;;;2.22;;
69083;SDS011;56185;48.526;9.044;2022-11-14T15:01:15;2.63;;;2.05;;
69083;SDS011;56185;48.526;9.044;2022-11-14T15:03:42;3.45;;;1.90;;
69083;SDS011;56185;48.526;9.044;2022-11-14T15:06:28;3.00;;;1.90;;
69083;SDS011;56185;48.526;9.044;2022-11-14T15:09:01;3.40;;;1.90;;
69083;SDS011;56185;48.526;9.044;2022-11-14T15:11:51;2.67;;;1.67;;
69083;SDS011;56185;48.526;9.044;2022-11-14T15:14:23;4.28;;;2.00;;
69083;SDS011;56185;48.526;9.044;2022-11-14T15:16:50;4.03;;;2.33;;
69083;SDS011;56185;48.526;9.044;2022-11-14T15:19:18;3.45;;;2.22;;
69083;SDS011;56185;48.526;9.044;2022-11-14T15:21:59;3.55;;;2.28;;
69083;SDS011;56185;48.526;9.044;2022-11-14T15:24:28;4.50;;;2.10;;
69083;SDS011;56185;48.526;9.044;2022-11-14T15:26:53;3.35;;;2.08;;
69083;SDS011;56185;48.526;9.044;2022-11-14T15:29:26;3.22;;;2.15;;
69083;SDS011;56185;48.526;9.044;2022-11-14T15:31:55;3.22;;;2.03;;
69083;SDS011;56185;48.526;9.044;2022-11-14T15:34:27;3.85;;;2.38;;
69083;SDS011;56185;48.526;9.044;2022-11-14T15:39:31;8.40;;;2.17;;
69083;SDS011;56185;48.526;9.044;2022-11-14T15:44:37;4.05;;;2.30;;
69083;SDS011;56185;48.526;9.044;2022-11-14T15:47:02;3.93;;;2.57;;
69083;SDS011;56185;48.526;9.044;2022-11-14T15:49:27;3.13;;;2.40;;
69083;SDS011;56185;48.526;9.044;2022-11-14T15:51:54;4.25;;;2.30;;
69083;SDS011;56185;48.526;9.044;2022-11-14T15:54:22;3.85;;;2.35;;
69083;SDS011;56185;48.526;9.044;2022-11-14T15:56:48;4.93;;;2.88;;
69083;SDS011;56185;48.526;9.044;2022-11-14T15:59:14;6.05;;;2.33;;
69083;SDS011;56185;48.526;9.044;2022-11-14T16:01:39;4.20;;;2.43;;
69083;SDS011;56185;48.526;9.044;2022-11-14T16:04:08;3.33;;;2.30;;
69083;SDS011;56185;48.526;9.044;2022-11-14T16:06:39;4.15;;;2.20;;
69083;SDS011;56185;48.526;9.044;2022-11-14T16:09:11;3.92;;;2.40;;
69083;SDS011;56185;48.526;9.044;2022-11-14T16:11:41;4.22;;;2.60;;
69083;SDS011;56185;48.526;9.044;2022-11-14T16:14:07;3.22;;;2.22;;
69083;SDS011;56185;48.526;9.044;2022-11-14T16:16:32;4.68;;;2.70;;
69083;SDS011;56185;48.526;9.044;2022-11-14T16:19:00;4.22;;;2.42;;
69083;SDS011;56185;48.526;9.044;2022-11-14T16:21:25;4.00;;;2.47;;
69083;SDS011;56185;48.526;9.044;2022-11-14T16:23:51;5.20;;;2.78;;
69083;SDS011;56185;48.526;9.044;2022-11-14T16:26:16;4.88;;;2.50;;
69083;SDS011;56185;48.526;9.044;2022-11-14T16:28:41;9.00;;;5.00;;